This is the latest recevied weather packets stored in our database for station/object R6HABA-13. If no packets are shown the sender has not sent any weather packets the latest 10 day(s).
| Time | Temp. | Humidity | Pressure | Rain* | Wind** | Luminosity | Snow |
|---|---|---|---|---|---|---|---|
| 1777926603 | 16.11° C | 72% | 1010 hPa | - | 2.24 m/s, 219° | - | - |
| 1777925703 | 16.11° C | 72% | 1010 hPa | - | 2.24 m/s, 219° | - | - |
| 1777924803 | 16.11° C | 72% | 1010 hPa | - | 2.24 m/s, 219° | - | - |
| 1777923903 | 16.67° C | 70% | 1010 hPa | - | 2.24 m/s, 219° | - | - |
| 1777923003 | 16.67° C | 67% | 1010 hPa | - | 2.24 m/s, 216° | - | - |
| 1777922103 | 16.67° C | 67% | 1010 hPa | - | 2.24 m/s, 216° | - | - |
| 1777921203 | 16.67° C | 67% | 1010 hPa | - | 2.24 m/s, 216° | - | - |
| 1777920303 | 16.67° C | 67% | 1010 hPa | - | 2.24 m/s, 216° | - | - |
| 1777919403 | 16.67° C | 67% | 1010 hPa | - | 2.24 m/s, 216° | - | - |
| 1777918502 | 16.67° C | 67% | 1010 hPa | - | 2.24 m/s, 216° | - | - |
| 1777917603 | 16.67° C | 67% | 1010 hPa | - | 2.68 m/s, 216° | - | - |
| 1777917225 | -17.78° C | 66% | 0 hPa | - | 0 m/s | - | - |
| 1777915803 | 18.89° C | 65% | 1010 hPa | - | 2.24 m/s, 204° | - | - |
| 1777914902 | 18.89° C | 65% | 1010 hPa | - | 2.24 m/s, 204° | - | - |
| 1777914003 | 18.89° C | 65% | 1010 hPa | - | 2.24 m/s, 204° | - | - |
| 1777913625 | -17.78° C | 65% | 0 hPa | - | 0 m/s | - | - |
| 1777912202 | 18.89° C | 65% | 1010 hPa | - | 2.68 m/s, 204° | - | - |
| 1777911303 | 21.67° C | 52% | 1010 hPa | - | 2.24 m/s, 202° | - | - |
| 1777910402 | 21.67° C | 60% | 1010 hPa | - | 2.24 m/s, 202° | - | - |
| 1777909503 | 21.67° C | 59% | 1010 hPa | - | 2.24 m/s, 202° | - | - |
| 1777908603 | 22.22° C | 52% | 1010 hPa | - | 2.24 m/s, 219° | - | - |
| 1777907703 | 22.22° C | 52% | 1010 hPa | - | 2.24 m/s, 219° | - | - |
| 1777906803 | 22.22° C | 52% | 1010 hPa | - | 2.24 m/s, 219° | - | - |
| 1777905902 | 22.22° C | 52% | 1010 hPa | - | 2.68 m/s, 219° | - | - |
| 1777905003 | 23.89° C | 50% | 1010 hPa | - | 3.13 m/s, 266° | - | - |
* Rain since midnight (hover to see other rain measurements)
** Current wind speed in m/s (hover to see current wind gust speed)